sensor_id;sensor_type;location;lat;lon;timestamp;P1;durP1;ratioP1;P2;durP2;ratioP2
66946;SDS011;53853;51.982;5.928;2023-07-31T00:01:43;1.73;;;1.00;;
66946;SDS011;53853;51.982;5.928;2023-07-31T00:04:16;1.70;;;1.08;;
66946;SDS011;53853;51.982;5.928;2023-07-31T00:06:46;2.30;;;1.25;;
66946;SDS011;53853;51.982;5.928;2023-07-31T00:09:15;2.03;;;1.33;;
66946;SDS011;53853;51.982;5.928;2023-07-31T00:11:45;1.88;;;1.10;;
66946;SDS011;53853;51.982;5.928;2023-07-31T00:14:15;1.30;;;0.80;;
66946;SDS011;53853;51.982;5.928;2023-07-31T00:16:45;1.88;;;0.95;;
66946;SDS011;53853;51.982;5.928;2023-07-31T00:19:18;1.58;;;1.00;;
66946;SDS011;53853;51.982;5.928;2023-07-31T00:21:48;1.55;;;0.80;;
66946;SDS011;53853;51.982;5.928;2023-07-31T00:24:18;2.10;;;1.30;;
66946;SDS011;53853;51.982;5.928;2023-07-31T00:26:48;0.82;;;0.70;;
66946;SDS011;53853;51.982;5.928;2023-07-31T00:29:18;2.88;;;1.00;;
66946;SDS011;53853;51.982;5.928;2023-07-31T00:31:48;1.40;;;0.85;;
66946;SDS011;53853;51.982;5.928;2023-07-31T00:34:20;3.63;;;1.67;;
66946;SDS011;53853;51.982;5.928;2023-07-31T00:36:50;2.33;;;1.45;;
66946;SDS011;53853;51.982;5.928;2023-07-31T00:39:20;2.65;;;1.92;;
66946;SDS011;53853;51.982;5.928;2023-07-31T00:41:50;2.10;;;1.20;;
66946;SDS011;53853;51.982;5.928;2023-07-31T00:44:20;1.90;;;1.10;;
66946;SDS011;53853;51.982;5.928;2023-07-31T00:46:50;3.88;;;2.35;;
66946;SDS011;53853;51.982;5.928;2023-07-31T00:49:23;3.67;;;1.98;;
66946;SDS011;53853;51.982;5.928;2023-07-31T00:51:53;5.35;;;3.30;;
66946;SDS011;53853;51.982;5.928;2023-07-31T00:54:25;7.45;;;3.30;;
66946;SDS011;53853;51.982;5.928;2023-07-31T00:56:55;6.95;;;4.60;;
66946;SDS011;53853;51.982;5.928;2023-07-31T00:59:25;9.27;;;5.20;;
66946;SDS011;53853;51.982;5.928;2023-07-31T01:01:54;11.05;;;5.38;;
66946;SDS011;53853;51.982;5.928;2023-07-31T01:04:27;9.90;;;6.05;;
66946;SDS011;53853;51.982;5.928;2023-07-31T01:07:00;10.65;;;5.43;;
66946;SDS011;53853;51.982;5.928;2023-07-31T01:09:35;14.13;;;7.57;;
66946;SDS011;53853;51.982;5.928;2023-07-31T01:12:12;17.65;;;7.72;;
66946;SDS011;53853;51.982;5.928;2023-07-31T01:17:34;20.52;;;10.93;;
66946;SDS011;53853;51.982;5.928;2023-07-31T01:20:08;19.95;;;9.38;;
66946;SDS011;53853;51.982;5.928;2023-07-31T01:22:59;22.48;;;10.18;;
66946;SDS011;53853;51.982;5.928;2023-07-31T01:25:56;20.90;;;9.43;;
66946;SDS011;53853;51.982;5.928;2023-07-31T01:28:33;17.38;;;9.18;;
66946;SDS011;53853;51.982;5.928;2023-07-31T01:31:10;20.42;;;9.82;;
66946;SDS011;53853;51.982;5.928;2023-07-31T01:33:43;22.92;;;9.07;;
66946;SDS011;53853;51.982;5.928;2023-07-31T01:36:13;15.48;;;8.75;;
66946;SDS011;53853;51.982;5.928;2023-07-31T01:38:44;21.80;;;9.82;;
66946;SDS011;53853;51.982;5.928;2023-07-31T01:41:16;16.45;;;7.85;;
66946;SDS011;53853;51.982;5.928;2023-07-31T01:43:46;18.58;;;9.27;;
66946;SDS011;53853;51.982;5.928;2023-07-31T01:46:16;23.05;;;10.18;;
66946;SDS011;53853;51.982;5.928;2023-07-31T01:48:46;18.25;;;8.88;;
66946;SDS011;53853;51.982;5.928;2023-07-31T01:51:16;16.65;;;8.35;;
66946;SDS011;53853;51.982;5.928;2023-07-31T01:53:46;20.80;;;9.27;;
66946;SDS011;53853;51.982;5.928;2023-07-31T01:56:19;21.85;;;8.50;;
66946;SDS011;53853;51.982;5.928;2023-07-31T01:58:48;18.73;;;7.88;;
66946;SDS011;53853;51.982;5.928;2023-07-31T02:01:18;19.33;;;8.63;;
66946;SDS011;53853;51.982;5.928;2023-07-31T02:03:49;16.50;;;8.50;;
66946;SDS011;53853;51.982;5.928;2023-07-31T02:06:22;18.97;;;7.63;;
66946;SDS011;53853;51.982;5.928;2023-07-31T02:08:52;16.92;;;8.82;;
66946;SDS011;53853;51.982;5.928;2023-07-31T02:11:24;17.67;;;7.80;;
66946;SDS011;53853;51.982;5.928;2023-07-31T02:13:54;20.80;;;8.27;;
66946;SDS011;53853;51.982;5.928;2023-07-31T02:16:24;20.25;;;7.65;;
66946;SDS011;53853;51.982;5.928;2023-07-31T02:18:54;19.70;;;8.65;;
66946;SDS011;53853;51.982;5.928;2023-07-31T02:21:25;15.35;;;8.63;;
66946;SDS011;53853;51.982;5.928;2023-07-31T02:23:55;18.70;;;8.77;;
66946;SDS011;53853;51.982;5.928;2023-07-31T02:26:28;16.80;;;7.60;;
66946;SDS011;53853;51.982;5.928;2023-07-31T02:28:58;17.15;;;8.25;;
66946;SDS011;53853;51.982;5.928;2023-07-31T02:31:28;21.45;;;8.90;;
66946;SDS011;53853;51.982;5.928;2023-07-31T02:33:58;16.30;;;7.80;;
66946;SDS011;53853;51.982;5.928;2023-07-31T02:36:28;16.77;;;8.18;;
66946;SDS011;53853;51.982;5.928;2023-07-31T02:38:57;12.93;;;7.80;;
66946;SDS011;53853;51.982;5.928;2023-07-31T02:41:30;14.88;;;7.07;;
66946;SDS011;53853;51.982;5.928;2023-07-31T02:44:01;22.50;;;8.70;;
66946;SDS011;53853;51.982;5.928;2023-07-31T02:46:31;13.20;;;6.78;;
66946;SDS011;53853;51.982;5.928;2023-07-31T02:49:01;12.57;;;5.68;;
66946;SDS011;53853;51.982;5.928;2023-07-31T02:51:31;10.00;;;5.80;;
66946;SDS011;53853;51.982;5.928;2023-07-31T02:54:01;19.35;;;8.07;;
66946;SDS011;53853;51.982;5.928;2023-07-31T02:56:33;17.85;;;7.72;;
66946;SDS011;53853;51.982;5.928;2023-07-31T02:59:03;10.35;;;5.00;;
66946;SDS011;53853;51.982;5.928;2023-07-31T03:01:33;7.45;;;4.55;;
66946;SDS011;53853;51.982;5.928;2023-07-31T03:04:00;13.02;;;6.32;;
66946;SDS011;53853;51.982;5.928;2023-07-31T03:06:30;16.75;;;7.75;;
66946;SDS011;53853;51.982;5.928;2023-07-31T03:09:00;24.55;;;8.43;;
66946;SDS011;53853;51.982;5.928;2023-07-31T03:11:32;20.42;;;8.38;;
66946;SDS011;53853;51.982;5.928;2023-07-31T03:14:02;18.05;;;8.68;;
66946;SDS011;53853;51.982;5.928;2023-07-31T03:16:32;19.00;;;9.13;;
66946;SDS011;53853;51.982;5.928;2023-07-31T03:19:02;13.57;;;6.90;;
66946;SDS011;53853;51.982;5.928;2023-07-31T03:21:32;20.60;;;9.15;;
66946;SDS011;53853;51.982;5.928;2023-07-31T03:24:02;19.95;;;8.00;;
66946;SDS011;53853;51.982;5.928;2023-07-31T03:26:35;14.60;;;7.30;;
66946;SDS011;53853;51.982;5.928;2023-07-31T03:29:07;17.27;;;7.28;;
66946;SDS011;53853;51.982;5.928;2023-07-31T03:31:37;16.08;;;8.40;;
66946;SDS011;53853;51.982;5.928;2023-07-31T03:34:07;19.92;;;9.05;;
66946;SDS011;53853;51.982;5.928;2023-07-31T03:36:36;18.13;;;7.80;;
66946;SDS011;53853;51.982;5.928;2023-07-31T03:39:06;22.85;;;7.97;;
66946;SDS011;53853;51.982;5.928;2023-07-31T03:41:39;13.13;;;7.15;;
66946;SDS011;53853;51.982;5.928;2023-07-31T03:44:09;13.30;;;7.05;;
66946;SDS011;53853;51.982;5.928;2023-07-31T03:46:39;17.17;;;8.55;;
66946;SDS011;53853;51.982;5.928;2023-07-31T03:49:08;17.30;;;8.30;;
66946;SDS011;53853;51.982;5.928;2023-07-31T03:51:38;17.35;;;7.93;;
66946;SDS011;53853;51.982;5.928;2023-07-31T03:54:08;17.42;;;7.80;;
66946;SDS011;53853;51.982;5.928;2023-07-31T03:56:41;13.75;;;6.68;;
66946;SDS011;53853;51.982;5.928;2023-07-31T03:59:11;17.00;;;7.55;;
66946;SDS011;53853;51.982;5.928;2023-07-31T04:01:41;19.23;;;7.72;;
66946;SDS011;53853;51.982;5.928;2023-07-31T04:04:11;18.52;;;7.90;;
66946;SDS011;53853;51.982;5.928;2023-07-31T04:06:41;14.80;;;7.05;;
66946;SDS011;53853;51.982;5.928;2023-07-31T04:09:11;17.70;;;7.82;;
66946;SDS011;53853;51.982;5.928;2023-07-31T04:11:43;12.35;;;6.53;;
66946;SDS011;53853;51.982;5.928;2023-07-31T04:14:13;13.00;;;6.63;;
66946;SDS011;53853;51.982;5.928;2023-07-31T04:16:43;15.60;;;7.35;;
66946;SDS011;53853;51.982;5.928;2023-07-31T04:19:13;15.73;;;7.65;;
66946;SDS011;53853;51.982;5.928;2023-07-31T04:21:42;16.52;;;7.80;;
66946;SDS011;53853;51.982;5.928;2023-07-31T04:24:12;16.92;;;7.55;;
66946;SDS011;53853;51.982;5.928;2023-07-31T04:26:52;15.85;;;7.97;;
66946;SDS011;53853;51.982;5.928;2023-07-31T04:29:22;17.25;;;6.80;;
66946;SDS011;53853;51.982;5.928;2023-07-31T04:31:52;16.80;;;7.78;;
66946;SDS011;53853;51.982;5.928;2023-07-31T04:34:22;15.82;;;7.95;;
66946;SDS011;53853;51.982;5.928;2023-07-31T04:36:52;20.75;;;8.45;;
66946;SDS011;53853;51.982;5.928;2023-07-31T04:39:22;16.20;;;7.38;;
66946;SDS011;53853;51.982;5.928;2023-07-31T04:41:54;20.85;;;6.95;;
66946;SDS011;53853;51.982;5.928;2023-07-31T04:44:24;13.38;;;6.47;;
66946;SDS011;53853;51.982;5.928;2023-07-31T04:46:54;14.77;;;7.35;;
66946;SDS011;53853;51.982;5.928;2023-07-31T04:49:24;11.35;;;6.15;;
66946;SDS011;53853;51.982;5.928;2023-07-31T04:51:54;15.20;;;6.15;;
66946;SDS011;53853;51.982;5.928;2023-07-31T04:54:24;14.45;;;7.20;;
66946;SDS011;53853;51.982;5.928;2023-07-31T04:56:56;11.88;;;5.55;;
66946;SDS011;53853;51.982;5.928;2023-07-31T04:59:26;13.40;;;7.25;;
66946;SDS011;53853;51.982;5.928;2023-07-31T05:01:57;15.85;;;6.43;;
66946;SDS011;53853;51.982;5.928;2023-07-31T05:04:27;12.10;;;6.15;;
66946;SDS011;53853;51.982;5.928;2023-07-31T05:06:57;14.48;;;7.35;;
66946;SDS011;53853;51.982;5.928;2023-07-31T05:09:27;14.25;;;6.40;;
66946;SDS011;53853;51.982;5.928;2023-07-31T05:11:59;15.27;;;7.43;;
66946;SDS011;53853;51.982;5.928;2023-07-31T05:14:29;16.08;;;8.32;;
66946;SDS011;53853;51.982;5.928;2023-07-31T05:16:59;12.20;;;5.57;;
66946;SDS011;53853;51.982;5.928;2023-07-31T05:19:29;16.35;;;7.38;;
66946;SDS011;53853;51.982;5.928;2023-07-31T05:21:58;14.98;;;7.50;;
66946;SDS011;53853;51.982;5.928;2023-07-31T05:24:28;10.15;;;5.63;;
66946;SDS011;53853;51.982;5.928;2023-07-31T05:27:02;12.55;;;6.30;;
66946;SDS011;53853;51.982;5.928;2023-07-31T05:29:32;40.20;;;28.40;;
66946;SDS011;53853;51.982;5.928;2023-07-31T05:32:02;23.75;;;17.45;;
66946;SDS011;53853;51.982;5.928;2023-07-31T05:34:33;12.27;;;8.07;;
66946;SDS011;53853;51.982;5.928;2023-07-31T05:37:03;12.32;;;7.05;;
66946;SDS011;53853;51.982;5.928;2023-07-31T05:39:33;12.32;;;5.88;;
66946;SDS011;53853;51.982;5.928;2023-07-31T05:42:06;25.08;;;15.65;;
66946;SDS011;53853;51.982;5.928;2023-07-31T05:44:36;10.38;;;5.53;;
66946;SDS011;53853;51.982;5.928;2023-07-31T05:47:06;16.75;;;7.45;;
66946;SDS011;53853;51.982;5.928;2023-07-31T05:49:35;66.00;;;41.65;;
66946;SDS011;53853;51.982;5.928;2023-07-31T05:52:06;21.95;;;14.25;;
66946;SDS011;53853;51.982;5.928;2023-07-31T05:54:36;18.58;;;8.55;;
66946;SDS011;53853;51.982;5.928;2023-07-31T05:57:08;15.27;;;8.05;;
66946;SDS011;53853;51.982;5.928;2023-07-31T05:59:38;12.23;;;6.60;;
66946;SDS011;53853;51.982;5.928;2023-07-31T06:02:08;11.20;;;6.22;;
66946;SDS011;53853;51.982;5.928;2023-07-31T06:04:38;10.40;;;5.47;;
66946;SDS011;53853;51.982;5.928;2023-07-31T06:07:08;9.52;;;4.97;;
66946;SDS011;53853;51.982;5.928;2023-07-31T06:09:38;10.60;;;5.80;;
66946;SDS011;53853;51.982;5.928;2023-07-31T06:12:10;7.85;;;5.05;;
66946;SDS011;53853;51.982;5.928;2023-07-31T06:14:43;7.93;;;4.03;;
66946;SDS011;53853;51.982;5.928;2023-07-31T06:17:13;7.25;;;4.05;;
66946;SDS011;53853;51.982;5.928;2023-07-31T06:19:44;9.70;;;4.68;;
66946;SDS011;53853;51.982;5.928;2023-07-31T06:22:14;8.05;;;5.05;;
66946;SDS011;53853;51.982;5.928;2023-07-31T06:24:44;9.65;;;5.15;;
66946;SDS011;53853;51.982;5.928;2023-07-31T06:27:17;7.70;;;4.97;;
66946;SDS011;53853;51.982;5.928;2023-07-31T06:29:47;9.80;;;4.68;;
66946;SDS011;53853;51.982;5.928;2023-07-31T06:32:17;7.13;;;4.03;;
66946;SDS011;53853;51.982;5.928;2023-07-31T06:34:47;9.73;;;4.28;;
66946;SDS011;53853;51.982;5.928;2023-07-31T06:37:17;13.52;;;4.90;;
66946;SDS011;53853;51.982;5.928;2023-07-31T06:39:47;6.82;;;3.95;;
66946;SDS011;53853;51.982;5.928;2023-07-31T06:42:19;8.10;;;4.22;;
66946;SDS011;53853;51.982;5.928;2023-07-31T06:44:49;9.20;;;4.55;;
66946;SDS011;53853;51.982;5.928;2023-07-31T06:47:19;9.18;;;4.13;;
66946;SDS011;53853;51.982;5.928;2023-07-31T06:49:49;8.02;;;3.92;;
66946;SDS011;53853;51.982;5.928;2023-07-31T06:52:19;10.00;;;5.05;;
66946;SDS011;53853;51.982;5.928;2023-07-31T06:55:00;7.38;;;3.72;;
66946;SDS011;53853;51.982;5.928;2023-07-31T06:57:34;8.88;;;3.85;;
66946;SDS011;53853;51.982;5.928;2023-07-31T07:00:05;7.22;;;3.78;;
66946;SDS011;53853;51.982;5.928;2023-07-31T07:02:36;8.85;;;4.57;;
66946;SDS011;53853;51.982;5.928;2023-07-31T07:05:06;5.72;;;3.90;;
66946;SDS011;53853;51.982;5.928;2023-07-31T07:07:36;8.75;;;4.28;;
66946;SDS011;53853;51.982;5.928;2023-07-31T07:10:07;5.47;;;3.22;;
66946;SDS011;53853;51.982;5.928;2023-07-31T07:12:40;4.82;;;2.70;;
66946;SDS011;53853;51.982;5.928;2023-07-31T07:15:09;4.45;;;2.80;;
66946;SDS011;53853;51.982;5.928;2023-07-31T07:17:39;4.07;;;2.50;;
66946;SDS011;53853;51.982;5.928;2023-07-31T07:20:09;5.10;;;2.22;;
66946;SDS011;53853;51.982;5.928;2023-07-31T07:22:39;4.10;;;2.67;;
66946;SDS011;53853;51.982;5.928;2023-07-31T07:25:09;3.78;;;2.15;;
66946;SDS011;53853;51.982;5.928;2023-07-31T07:27:42;3.38;;;1.90;;
66946;SDS011;53853;51.982;5.928;2023-07-31T07:30:12;3.13;;;1.75;;
66946;SDS011;53853;51.982;5.928;2023-07-31T07:32:43;3.47;;;1.75;;
66946;SDS011;53853;51.982;5.928;2023-07-31T07:35:13;4.03;;;1.70;;
66946;SDS011;53853;51.982;5.928;2023-07-31T07:37:43;3.90;;;1.52;;
66946;SDS011;53853;51.982;5.928;2023-07-31T07:40:12;2.90;;;1.70;;
66946;SDS011;53853;51.982;5.928;2023-07-31T07:42:45;3.30;;;1.63;;
66946;SDS011;53853;51.982;5.928;2023-07-31T07:45:15;2.45;;;1.50;;
66946;SDS011;53853;51.982;5.928;2023-07-31T07:47:45;3.13;;;1.70;;
66946;SDS011;53853;51.982;5.928;2023-07-31T07:50:15;2.42;;;1.52;;
66946;SDS011;53853;51.982;5.928;2023-07-31T07:52:45;2.78;;;1.48;;
66946;SDS011;53853;51.982;5.928;2023-07-31T07:55:15;2.90;;;1.58;;
66946;SDS011;53853;51.982;5.928;2023-07-31T07:57:47;2.50;;;1.27;;
66946;SDS011;53853;51.982;5.928;2023-07-31T08:00:17;2.83;;;1.20;;
66946;SDS011;53853;51.982;5.928;2023-07-31T08:02:47;4.65;;;2.05;;
66946;SDS011;53853;51.982;5.928;2023-07-31T08:05:17;2.53;;;1.35;;
66946;SDS011;53853;51.982;5.928;2023-07-31T08:07:47;2.28;;;1.52;;
66946;SDS011;53853;51.982;5.928;2023-07-31T08:10:16;3.65;;;1.85;;
66946;SDS011;53853;51.982;5.928;2023-07-31T08:12:49;2.38;;;1.45;;
66946;SDS011;53853;51.982;5.928;2023-07-31T08:15:19;2.33;;;1.27;;
66946;SDS011;53853;51.982;5.928;2023-07-31T08:17:49;2.15;;;1.30;;
66946;SDS011;53853;51.982;5.928;2023-07-31T08:20:19;2.00;;;1.42;;
66946;SDS011;53853;51.982;5.928;2023-07-31T08:22:49;3.00;;;1.60;;
66946;SDS011;53853;51.982;5.928;2023-07-31T08:25:19;2.92;;;1.70;;
66946;SDS011;53853;51.982;5.928;2023-07-31T08:27:51;3.88;;;2.13;;
66946;SDS011;53853;51.982;5.928;2023-07-31T08:30:21;3.03;;;1.70;;
66946;SDS011;53853;51.982;5.928;2023-07-31T08:32:51;3.53;;;1.58;;
66946;SDS011;53853;51.982;5.928;2023-07-31T08:35:21;2.60;;;1.50;;
66946;SDS011;53853;51.982;5.928;2023-07-31T08:37:54;2.85;;;1.70;;
66946;SDS011;53853;51.982;5.928;2023-07-31T08:40:24;3.13;;;1.88;;
66946;SDS011;53853;51.982;5.928;2023-07-31T08:42:56;2.40;;;1.90;;
66946;SDS011;53853;51.982;5.928;2023-07-31T08:45:28;2.47;;;1.80;;
66946;SDS011;53853;51.982;5.928;2023-07-31T08:47:59;2.42;;;1.67;;
66946;SDS011;53853;51.982;5.928;2023-07-31T08:50:29;2.40;;;1.83;;
66946;SDS011;53853;51.982;5.928;2023-07-31T08:52:59;2.95;;;1.98;;
66946;SDS011;53853;51.982;5.928;2023-07-31T08:55:29;2.80;;;2.00;;
66946;SDS011;53853;51.982;5.928;2023-07-31T08:58:03;3.38;;;2.20;;
66946;SDS011;53853;51.982;5.928;2023-07-31T09:00:34;3.40;;;2.27;;
66946;SDS011;53853;51.982;5.928;2023-07-31T09:03:07;2.63;;;1.90;;
66946;SDS011;53853;51.982;5.928;2023-07-31T09:05:42;3.65;;;2.30;;
66946;SDS011;53853;51.982;5.928;2023-07-31T09:08:14;2.55;;;1.95;;
66946;SDS011;53853;51.982;5.928;2023-07-31T09:10:46;3.08;;;2.05;;
66946;SDS011;53853;51.982;5.928;2023-07-31T09:13:20;4.75;;;2.13;;
66946;SDS011;53853;51.982;5.928;2023-07-31T09:15:50;3.13;;;1.90;;
66946;SDS011;53853;51.982;5.928;2023-07-31T09:18:20;3.35;;;2.42;;
66946;SDS011;53853;51.982;5.928;2023-07-31T09:21:00;4.20;;;2.40;;
66946;SDS011;53853;51.982;5.928;2023-07-31T09:23:40;3.28;;;2.08;;
66946;SDS011;53853;51.982;5.928;2023-07-31T09:26:11;3.88;;;3.03;;
66946;SDS011;53853;51.982;5.928;2023-07-31T09:29:00;4.28;;;2.25;;
66946;SDS011;53853;51.982;5.928;2023-07-31T09:31:38;3.38;;;2.65;;
66946;SDS011;53853;51.982;5.928;2023-07-31T09:34:09;4.32;;;3.40;;
66946;SDS011;53853;51.982;5.928;2023-07-31T09:36:40;4.20;;;2.72;;
66946;SDS011;53853;51.982;5.928;2023-07-31T09:39:10;3.80;;;2.72;;
66946;SDS011;53853;51.982;5.928;2023-07-31T09:41:42;4.35;;;3.08;;
66946;SDS011;53853;51.982;5.928;2023-07-31T09:44:15;4.57;;;4.03;;
66946;SDS011;53853;51.982;5.928;2023-07-31T09:46:45;4.10;;;3.47;;
66946;SDS011;53853;51.982;5.928;2023-07-31T09:49:15;4.95;;;3.95;;
66946;SDS011;53853;51.982;5.928;2023-07-31T09:51:45;7.20;;;4.13;;
66946;SDS011;53853;51.982;5.928;2023-07-31T09:54:15;3.92;;;3.53;;
66946;SDS011;53853;51.982;5.928;2023-07-31T09:56:46;6.53;;;4.53;;
66946;SDS011;53853;51.982;5.928;2023-07-31T09:59:20;5.95;;;3.97;;
66946;SDS011;53853;51.982;5.928;2023-07-31T10:01:50;4.82;;;4.28;;
66946;SDS011;53853;51.982;5.928;2023-07-31T10:04:25;8.00;;;5.70;;
66946;SDS011;53853;51.982;5.928;2023-07-31T10:06:58;6.40;;;4.43;;
66946;SDS011;53853;51.982;5.928;2023-07-31T10:09:30;7.88;;;5.55;;
66946;SDS011;53853;51.982;5.928;2023-07-31T10:12:02;7.20;;;5.68;;
66946;SDS011;53853;51.982;5.928;2023-07-31T10:14:40;6.93;;;4.40;;
66946;SDS011;53853;51.982;5.928;2023-07-31T10:17:10;5.15;;;4.15;;
66946;SDS011;53853;51.982;5.928;2023-07-31T10:19:42;5.85;;;3.88;;
66946;SDS011;53853;51.982;5.928;2023-07-31T10:22:12;8.38;;;5.88;;
66946;SDS011;53853;51.982;5.928;2023-07-31T10:24:44;4.25;;;3.67;;
66946;SDS011;53853;51.982;5.928;2023-07-31T10:27:14;7.57;;;5.00;;
66946;SDS011;53853;51.982;5.928;2023-07-31T10:29:47;8.60;;;4.65;;
66946;SDS011;53853;51.982;5.928;2023-07-31T10:32:17;4.78;;;3.58;;
66946;SDS011;53853;51.982;5.928;2023-07-31T10:34:49;6.07;;;4.50;;
66946;SDS011;53853;51.982;5.928;2023-07-31T10:37:21;5.72;;;4.80;;
66946;SDS011;53853;51.982;5.928;2023-07-31T10:39:56;6.35;;;4.35;;
66946;SDS011;53853;51.982;5.928;2023-07-31T10:42:27;6.90;;;5.30;;
66946;SDS011;53853;51.982;5.928;2023-07-31T10:45:03;8.75;;;5.38;;
66946;SDS011;53853;51.982;5.928;2023-07-31T10:47:38;8.82;;;5.85;;
66946;SDS011;53853;51.982;5.928;2023-07-31T10:50:12;5.38;;;4.85;;
66946;SDS011;53853;51.982;5.928;2023-07-31T10:52:46;6.15;;;4.20;;
66946;SDS011;53853;51.982;5.928;2023-07-31T10:55:30;6.50;;;5.80;;
66946;SDS011;53853;51.982;5.928;2023-07-31T11:00:38;7.15;;;4.47;;
66946;SDS011;53853;51.982;5.928;2023-07-31T11:03:10;7.55;;;5.10;;
66946;SDS011;53853;51.982;5.928;2023-07-31T11:05:42;9.63;;;5.45;;
66946;SDS011;53853;51.982;5.928;2023-07-31T11:08:14;5.93;;;4.68;;
66946;SDS011;53853;51.982;5.928;2023-07-31T11:10:47;7.57;;;5.07;;
66946;SDS011;53853;51.982;5.928;2023-07-31T11:13:18;6.53;;;4.70;;
66946;SDS011;53853;51.982;5.928;2023-07-31T11:15:51;8.93;;;5.38;;
66946;SDS011;53853;51.982;5.928;2023-07-31T11:18:21;7.80;;;4.90;;
66946;SDS011;53853;51.982;5.928;2023-07-31T11:20:51;8.38;;;5.72;;
66946;SDS011;53853;51.982;5.928;2023-07-31T11:23:21;6.55;;;4.10;;
66946;SDS011;53853;51.982;5.928;2023-07-31T11:25:52;9.43;;;5.35;;
66946;SDS011;53853;51.982;5.928;2023-07-31T11:28:30;6.70;;;4.78;;
66946;SDS011;53853;51.982;5.928;2023-07-31T11:31:04;6.03;;;4.68;;
66946;SDS011;53853;51.982;5.928;2023-07-31T11:33:37;6.90;;;5.68;;
66946;SDS011;53853;51.982;5.928;2023-07-31T11:36:10;8.95;;;5.82;;
66946;SDS011;53853;51.982;5.928;2023-07-31T11:38:44;6.22;;;4.32;;
66946;SDS011;53853;51.982;5.928;2023-07-31T11:41:14;5.65;;;3.40;;
66946;SDS011;53853;51.982;5.928;2023-07-31T11:43:45;6.78;;;5.00;;
66946;SDS011;53853;51.982;5.928;2023-07-31T11:46:18;5.90;;;4.47;;
66946;SDS011;53853;51.982;5.928;2023-07-31T11:48:48;5.32;;;3.92;;
66946;SDS011;53853;51.982;5.928;2023-07-31T11:51:19;4.90;;;4.15;;
66946;SDS011;53853;51.982;5.928;2023-07-31T11:53:50;5.18;;;4.25;;
66946;SDS011;53853;51.982;5.928;2023-07-31T11:56:22;6.15;;;4.88;;
66946;SDS011;53853;51.982;5.928;2023-07-31T11:58:54;7.18;;;4.53;;
66946;SDS011;53853;51.982;5.928;2023-07-31T12:01:31;5.53;;;3.90;;
66946;SDS011;53853;51.982;5.928;2023-07-31T12:04:01;5.50;;;4.47;;
66946;SDS011;53853;51.982;5.928;2023-07-31T12:06:34;6.70;;;3.80;;
66946;SDS011;53853;51.982;5.928;2023-07-31T12:09:04;7.10;;;5.18;;
66946;SDS011;53853;51.982;5.928;2023-07-31T12:11:42;6.57;;;4.35;;
66946;SDS011;53853;51.982;5.928;2023-07-31T12:14:19;6.13;;;4.72;;
66946;SDS011;53853;51.982;5.928;2023-07-31T12:16:56;8.50;;;5.38;;
66946;SDS011;53853;51.982;5.928;2023-07-31T12:19:27;4.70;;;3.65;;
66946;SDS011;53853;51.982;5.928;2023-07-31T12:21:58;5.03;;;4.22;;
66946;SDS011;53853;51.982;5.928;2023-07-31T12:24:28;5.47;;;4.55;;
66946;SDS011;53853;51.982;5.928;2023-07-31T12:26:58;4.90;;;3.45;;
66946;SDS011;53853;51.982;5.928;2023-07-31T12:29:33;4.82;;;3.42;;
66946;SDS011;53853;51.982;5.928;2023-07-31T12:32:06;5.65;;;3.55;;
66946;SDS011;53853;51.982;5.928;2023-07-31T12:34:50;4.50;;;3.10;;
66946;SDS011;53853;51.982;5.928;2023-07-31T12:37:20;4.70;;;3.15;;
66946;SDS011;53853;51.982;5.928;2023-07-31T12:39:50;5.63;;;3.33;;
66946;SDS011;53853;51.982;5.928;2023-07-31T12:42:20;6.95;;;3.78;;
66946;SDS011;53853;51.982;5.928;2023-07-31T12:44:50;5.90;;;4.30;;
66946;SDS011;53853;51.982;5.928;2023-07-31T12:47:23;5.78;;;4.00;;
66946;SDS011;53853;51.982;5.928;2023-07-31T12:49:52;7.05;;;4.75;;
66946;SDS011;53853;51.982;5.928;2023-07-31T12:52:22;5.95;;;3.88;;
66946;SDS011;53853;51.982;5.928;2023-07-31T12:54:52;6.10;;;4.95;;
66946;SDS011;53853;51.982;5.928;2023-07-31T12:57:22;6.43;;;4.07;;
66946;SDS011;53853;51.982;5.928;2023-07-31T12:59:52;6.55;;;5.18;;
66946;SDS011;53853;51.982;5.928;2023-07-31T13:02:24;6.68;;;5.35;;
66946;SDS011;53853;51.982;5.928;2023-07-31T13:04:54;6.22;;;4.72;;
66946;SDS011;53853;51.982;5.928;2023-07-31T13:07:24;5.13;;;4.00;;
66946;SDS011;53853;51.982;5.928;2023-07-31T13:09:54;5.93;;;5.28;;
66946;SDS011;53853;51.982;5.928;2023-07-31T13:12:24;5.82;;;4.63;;
66946;SDS011;53853;51.982;5.928;2023-07-31T13:14:54;7.35;;;5.18;;
66946;SDS011;53853;51.982;5.928;2023-07-31T13:17:27;6.53;;;5.40;;
66946;SDS011;53853;51.982;5.928;2023-07-31T13:19:57;5.75;;;4.53;;
66946;SDS011;53853;51.982;5.928;2023-07-31T13:22:27;7.03;;;4.78;;
66946;SDS011;53853;51.982;5.928;2023-07-31T13:24:57;5.60;;;4.97;;
66946;SDS011;53853;51.982;5.928;2023-07-31T13:27:27;5.68;;;4.65;;
66946;SDS011;53853;51.982;5.928;2023-07-31T13:29:57;5.65;;;4.30;;
66946;SDS011;53853;51.982;5.928;2023-07-31T13:32:29;7.75;;;4.47;;
66946;SDS011;53853;51.982;5.928;2023-07-31T13:34:59;6.65;;;4.18;;
66946;SDS011;53853;51.982;5.928;2023-07-31T13:37:29;4.43;;;3.05;;
66946;SDS011;53853;51.982;5.928;2023-07-31T13:39:59;5.60;;;4.18;;
66946;SDS011;53853;51.982;5.928;2023-07-31T13:42:30;6.38;;;4.10;;
66946;SDS011;53853;51.982;5.928;2023-07-31T13:45:00;4.47;;;3.38;;
66946;SDS011;53853;51.982;5.928;2023-07-31T13:47:32;4.47;;;3.22;;
66946;SDS011;53853;51.982;5.928;2023-07-31T13:50:03;6.47;;;4.05;;
66946;SDS011;53853;51.982;5.928;2023-07-31T13:52:33;5.45;;;3.22;;
66946;SDS011;53853;51.982;5.928;2023-07-31T13:55:04;5.47;;;4.15;;
66946;SDS011;53853;51.982;5.928;2023-07-31T13:57:34;4.97;;;3.92;;
66946;SDS011;53853;51.982;5.928;2023-07-31T14:00:05;6.55;;;3.53;;
66946;SDS011;53853;51.982;5.928;2023-07-31T14:02:38;4.30;;;3.53;;
66946;SDS011;53853;51.982;5.928;2023-07-31T14:05:08;5.43;;;3.63;;
66946;SDS011;53853;51.982;5.928;2023-07-31T14:07:38;4.63;;;3.97;;
66946;SDS011;53853;51.982;5.928;2023-07-31T14:10:09;5.35;;;4.68;;
66946;SDS011;53853;51.982;5.928;2023-07-31T14:12:38;6.38;;;4.20;;
66946;SDS011;53853;51.982;5.928;2023-07-31T14:15:09;6.50;;;4.63;;
66946;SDS011;53853;51.982;5.928;2023-07-31T14:17:42;6.03;;;4.18;;
66946;SDS011;53853;51.982;5.928;2023-07-31T14:20:12;6.65;;;4.20;;
66946;SDS011;53853;51.982;5.928;2023-07-31T14:22:42;6.00;;;4.10;;
66946;SDS011;53853;51.982;5.928;2023-07-31T14:25:12;6.15;;;4.30;;
66946;SDS011;53853;51.982;5.928;2023-07-31T14:27:41;7.45;;;4.80;;
66946;SDS011;53853;51.982;5.928;2023-07-31T14:30:11;7.47;;;4.72;;
66946;SDS011;53853;51.982;5.928;2023-07-31T14:32:44;7.07;;;4.93;;
66946;SDS011;53853;51.982;5.928;2023-07-31T14:35:14;6.70;;;5.03;;
66946;SDS011;53853;51.982;5.928;2023-07-31T14:37:44;5.70;;;4.15;;
66946;SDS011;53853;51.982;5.928;2023-07-31T14:40:14;6.82;;;3.78;;
66946;SDS011;53853;51.982;5.928;2023-07-31T14:42:44;7.78;;;5.55;;
66946;SDS011;53853;51.982;5.928;2023-07-31T14:45:14;6.15;;;4.47;;
66946;SDS011;53853;51.982;5.928;2023-07-31T14:47:47;6.57;;;3.78;;
66946;SDS011;53853;51.982;5.928;2023-07-31T14:50:17;7.20;;;4.70;;
66946;SDS011;53853;51.982;5.928;2023-07-31T14:52:49;5.75;;;4.32;;
66946;SDS011;53853;51.982;5.928;2023-07-31T14:55:19;7.65;;;4.78;;
66946;SDS011;53853;51.982;5.928;2023-07-31T14:57:49;8.05;;;5.47;;
66946;SDS011;53853;51.982;5.928;2023-07-31T15:00:19;8.38;;;6.15;;
66946;SDS011;53853;51.982;5.928;2023-07-31T15:02:52;6.82;;;4.57;;
66946;SDS011;53853;51.982;5.928;2023-07-31T15:05:22;5.75;;;4.47;;
66946;SDS011;53853;51.982;5.928;2023-07-31T15:07:52;6.55;;;4.03;;
66946;SDS011;53853;51.982;5.928;2023-07-31T15:10:22;6.45;;;4.70;;
66946;SDS011;53853;51.982;5.928;2023-07-31T15:12:52;9.82;;;4.95;;